Current Weather Conditions: station 44042

sailwx.info

Wind from 340 at 17 knots gusting 19

Air temperature 0.6° C
Water temperature 6.2° C

Last reported at 2020-Jan-20 20:30 UTC.
Time now 2020-Jan-20 21:04 UTC

Location: N 38°00' W 076°18'.
View on Google Maps.

See reports from other nearby stations

  
Tides and Currents Weather Stations Pressure Air Temp Water Temp Dewpoint Dewpoint Depression Visibility Wind Speed Wind Dir Waves Ship Positions
date/time (UTC)wind fromknots sea level pressurealtimeterstation pressurevisibilityair tempwater tempwave heightnotes
2020-Jan-20 20:30 340 17 gusting 19 0.6 6.2
2020-Jan-20 20:24 360 17 gusting 17 0.6 6.4
2020-Jan-20 20:18 340 17 gusting 19 0.5 6.4
2020-Jan-20 20:12 340 17 gusting 19 0.5 6.5
2020-Jan-20 20:06 340 15 gusting 17 0.3 6.5
2020-Jan-20 20:00 010 17 gusting 19 0.1 6.5
2020-Jan-20 19:54 360 17 gusting 19 0.2 6.5
2020-Jan-20 19:48 350 17 gusting 19 0.2 6.5
2020-Jan-20 19:42 360 17 gusting 19 0.1 6.5
2020-Jan-20 19:36 350 17 gusting 17 -0.0 6.5
2020-Jan-20 19:30 320 17 gusting 19 -0.0 6.5
2020-Jan-20 19:24 340 17 gusting 19 -0.1 6.5
2020-Jan-20 19:18 350 19 gusting 21 -0.1 6.5
2020-Jan-20 19:12 330 17 gusting 19 -0.0 6.5
2020-Jan-20 19:06 360 17 gusting 19 -0.2 6.5
2020-Jan-20 19:00 360 17 gusting 21 -0.1 6.5 0.4
2020-Jan-20 18:54 340 15 gusting 17 -0.4 6.5
2020-Jan-20 18:48 310 17 gusting 19 -0.5 6.5
2020-Jan-20 18:42 330 15 gusting 17 -0.4 6.5
2020-Jan-20 18:36 340 19 gusting 23 -0.5 6.5
2020-Jan-20 18:30 320 17 gusting 19 -0.7 6.5
2020-Jan-20 18:24 350 17 gusting 19 -0.7 6.5
2020-Jan-20 18:18 360 17 gusting 19 -0.8 6.4
2020-Jan-20 18:12 360 17 gusting 19 -0.9 6.1
2020-Jan-20 18:06 340 17 gusting 21 -0.9 6.1
2020-Jan-20 18:00 350 17 gusting 19 -0.8 6.1 0.5
2020-Jan-20 17:54 340 15 gusting 19 -1.1 6.1
2020-Jan-20 17:48 320 15 gusting 17 -1.2 6.1
2020-Jan-20 17:42 360 15 gusting 17 -1.1 6.0
2020-Jan-20 17:36 350 17 gusting 21 -1.1 6.0
2020-Jan-20 17:30 340 17 gusting 21 -1.3 6.0
2020-Jan-20 17:24 010 17 gusting 19 -1.2 6.1
2020-Jan-20 17:18 340 17 gusting 19 -1.4 6.0
2020-Jan-20 17:12 340 15 gusting 17 -1.2 6.2
2020-Jan-20 17:06 010 15 gusting 19 -1.4 6.3
2020-Jan-20 17:00 350 17 gusting 21 -1.3 6.3 0.4
2020-Jan-20 16:54 330 15 gusting 17 -1.4 6.3
2020-Jan-20 16:48 330 17 gusting 19 -1.4 6.2
2020-Jan-20 16:42 360 15 gusting 17 -1.5 6.2
2020-Jan-20 16:36 330 17 gusting 19 -1.6 6.2
2020-Jan-20 16:30 360 15 gusting 19 -1.5 6.2
2020-Jan-20 16:24 330 17 gusting 19 -1.8 6.2
2020-Jan-20 16:18 330 17 gusting 19 -1.7 6.2
2020-Jan-20 16:12 330 15 gusting 17 -2.0 6.2
2020-Jan-20 16:06 010 17 gusting 19 -2.0 6.3
2020-Jan-20 16:00 320 19 gusting 21 -1.9 6.3 0.5
2020-Jan-20 15:54 320 15 gusting 17 -2.0 6.3
2020-Jan-20 15:48 340 17 gusting 19 -2.1 6.3
2020-Jan-20 15:42 330 17 gusting 19 -2.2 6.3
2020-Jan-20 15:36 010 19 gusting 21 -2.2 6.3
2020-Jan-20 15:30 340 17 gusting 19 -2.2 6.3
2020-Jan-20 15:24 320 15 gusting 17 -2.2 6.3
2020-Jan-20 15:18 330 17 gusting 19 -2.4 6.3
2020-Jan-20 15:12 330 17 gusting 19 -2.5 6.3
2020-Jan-20 15:06 310 19 gusting 21 -2.5 6.2
2020-Jan-20 15:00 290 17 gusting 19 -2.5 6.2 0.5
2020-Jan-20 14:54 350 19 gusting 21 -2.7 6.1
2020-Jan-20 14:48 280 17 gusting 19 -2.8 6.1
2020-Jan-20 14:42 300 17 gusting 19 -2.7 6.0
2020-Jan-20 14:36 320 17 gusting 23 -2.8 6.1
2020-Jan-20 14:30 340 19 gusting 23 -2.8 6.0
2020-Jan-20 14:24 310 17 gusting 19 -2.9 6.0
2020-Jan-20 14:18 340 17 gusting 21 -3.1 6.0
2020-Jan-20 14:12 310 19 gusting 25 -2.9 6.0
2020-Jan-20 14:06 340 17 gusting 21 -3.1 6.0
2020-Jan-20 14:00 330 17 gusting 21 -2.9 5.8 0.6
2020-Jan-20 13:54 350 15 gusting 17 -3.0 5.8
2020-Jan-20 13:48 330 19 gusting 23 -3.2 6.0
2020-Jan-20 13:42 290 17 gusting 21 -3.0 6.0
2020-Jan-20 13:36 330 13 gusting 17 -3.2 5.9
2020-Jan-20 13:30 310 17 gusting 19 -3.2 5.8
2020-Jan-20 13:24 330 19 gusting 23 -3.3 5.7
2020-Jan-20 13:18 290 13 gusting 17 -3.4 5.9
2020-Jan-20 13:12 310 17 gusting 21 -3.6 6.1
2020-Jan-20 13:06 320 15 gusting 19 -3.6 6.0
2020-Jan-20 13:00 320 15 gusting 21 -3.7 6.1 0.4
2020-Jan-20 12:54 290 13 gusting 17 -3.7 6.1
2020-Jan-20 12:48 310 13 gusting 17 -3.5 6.0
2020-Jan-20 12:42 330 15 gusting 17 -3.6 6.2
2020-Jan-20 12:36 340 15 gusting 17 -3.5 6.2
2020-Jan-20 12:30 310 13 gusting 17 -3.5 6.1
2020-Jan-20 12:24 340 15 gusting 19 -3.5 6.2
2020-Jan-20 12:18 320 17 gusting 23 -3.6 6.3
2020-Jan-20 12:12 310 15 gusting 21 -3.7 6.3
2020-Jan-20 12:06 320 13 gusting 17 -3.2 6.3
2020-Jan-20 12:00 300 13 gusting 15 -3.5 6.4 0.5
2020-Jan-20 11:54 310 15 gusting 19 -3.4 6.4
2020-Jan-20 11:48 330 15 gusting 19 -3.3 6.4
2020-Jan-20 11:42 310 15 gusting 19 -3.3 6.5
2020-Jan-20 11:36 320 13 gusting 17 -3.4 6.5
2020-Jan-20 11:30 340 15 gusting 19 -3.4 6.5
2020-Jan-20 11:24 320 13 gusting 17 -3.3 6.5
2020-Jan-20 11:18 310 15 gusting 17 -3.3 6.5
2020-Jan-20 11:12 330 15 gusting 17 -3.4 6.5
2020-Jan-20 11:06 310 15 gusting 17 -3.3 6.5
2020-Jan-20 11:00 310 15 gusting 19 -3.2 6.5 0.5
2020-Jan-20 10:54 350 13 gusting 17 -3.4 6.5
2020-Jan-20 10:48 350 17 gusting 19 -3.1 6.4
2020-Jan-20 10:42 300 15 gusting 17 -3.0 6.4
2020-Jan-20 10:36 310 19 gusting 21 -3.0 6.4
2020-Jan-20 10:30 320 17 gusting 21 -3.0 6.5
2020-Jan-20 10:24 300 19 gusting 23 -2.8 6.5
2020-Jan-20 10:18 320 19 gusting 23 -2.9 6.5
2020-Jan-20 10:12 310 15 gusting 19 -2.8 6.5
2020-Jan-20 10:06 300 17 gusting 21 -2.9 6.5
2020-Jan-20 10:00 300 19 gusting 23 -3.1 6.5 0.6
2020-Jan-20 09:54 310 19 gusting 23 -3.0 6.5
2020-Jan-20 09:48 300 21 gusting 25 -2.8 6.5
2020-Jan-20 09:42 320 21 gusting 25 -3.1 6.4
2020-Jan-20 09:36 320 19 gusting 21 -2.8 6.5
2020-Jan-20 09:30 320 17 gusting 21 -2.9 6.4
2020-Jan-20 09:24 310 15 gusting 21 -2.7 6.5
2020-Jan-20 09:18 310 19 gusting 25 -2.9 6.5
2020-Jan-20 09:12 330 19 gusting 23 -2.7 6.5
2020-Jan-20 09:06 320 21 gusting 25 -2.4 6.5
2020-Jan-20 09:00 290 19 gusting 23 -2.5 6.5 0.5
2020-Jan-20 08:54 310 19 gusting 23 -2.5 6.5
2020-Jan-20 08:48 310 17 gusting 19 -2.6 6.5
2020-Jan-20 08:42 320 19 gusting 23 -2.4 6.5
2020-Jan-20 08:36 330 17 gusting 19 -2.4 6.4
2020-Jan-20 08:30 310 17 gusting 21 -2.4 6.5
2020-Jan-20 08:24 310 17 gusting 23 -2.3 6.5
2020-Jan-20 08:18 330 19 gusting 23 -2.2 6.5
2020-Jan-20 08:12 300 17 gusting 21 -2.2 6.5
2020-Jan-20 08:06 320 21 gusting 25 -2.1 6.5
2020-Jan-20 08:00 330 15 gusting 21 -2.2 6.5 0.5
2020-Jan-20 07:54 320 19 gusting 23 -2.1 6.5
2020-Jan-20 07:48 300 15 gusting 17 -2.2 6.7
2020-Jan-20 07:42 330 15 gusting 21 -2.1 6.7
2020-Jan-20 07:36 320 17 gusting 19 -2.0 6.7
2020-Jan-20 07:30 310 17 gusting 23 -2.0 6.7
2020-Jan-20 07:24 290 19 gusting 23 -2.0 6.7
2020-Jan-20 07:18 300 17 gusting 21 -2.0 6.7
2020-Jan-20 07:12 300 15 gusting 17 -1.9 6.7
2020-Jan-20 07:06 300 17 gusting 19 -1.7 6.7
2020-Jan-20 07:00 330 21 gusting 23 -1.5 6.7 0.6
2020-Jan-20 06:54 340 19 gusting 25 -1.4 6.8
2020-Jan-20 06:48 310 21 gusting 23 -1.5 6.8
2020-Jan-20 06:42 300 23 gusting 25 -1.5 6.8
2020-Jan-20 06:36 310 21 gusting 23 -1.6 6.8
2020-Jan-20 06:30 330 17 gusting 19 -1.5 6.8
2020-Jan-20 06:24 320 17 gusting 23 -1.3 6.7
2020-Jan-20 06:18 300 21 gusting 23 -1.3 6.7
2020-Jan-20 06:12 320 21 gusting 27 -1.3 6.6
2020-Jan-20 06:06 320 19 gusting 23 -1.1 6.6
2020-Jan-20 06:00 320 21 gusting 25 -1.1 6.6 1.0
2020-Jan-20 05:54 300 19 gusting 23 -1.0 6.6
2020-Jan-20 05:48 300 21 gusting 25 -0.9 6.7
2020-Jan-20 05:42 320 19 gusting 23 -1.0 6.7
2020-Jan-20 05:36 310 19 gusting 21 -0.7 6.7
2020-Jan-20 05:30 310 19 gusting 23 -0.6 6.7
2020-Jan-20 05:24 310 17 gusting 19 -0.7 6.8
2020-Jan-20 05:18 310 17 gusting 21 -0.7 6.8
2020-Jan-20 05:12 310 17 gusting 19 -0.4 6.8
2020-Jan-20 05:06 320 17 gusting 21 -0.6 6.8
2020-Jan-20 05:00 310 19 gusting 23 -0.6 6.8 0.5
2020-Jan-20 04:54 310 17 gusting 23 -0.7 6.8
2020-Jan-20 04:48 290 15 gusting 17 -0.4 6.8
2020-Jan-20 04:42 320 15 gusting 19 -0.4 6.8
2020-Jan-20 04:36 320 15 gusting 19 -0.3 6.8
2020-Jan-20 04:30 310 17 gusting 21 -0.2 6.8
2020-Jan-20 04:24 310 17 gusting 21 -0.1 6.8
2020-Jan-20 04:18 320 19 gusting 21 -0.1 6.8
2020-Jan-20 04:12 310 17 gusting 19 -0.0 6.9
2020-Jan-20 04:06 320 15 gusting 19 0.2 6.8
2020-Jan-20 04:00 320 15 gusting 17 -0.1 6.8 0.7
2020-Jan-20 03:54 300 15 gusting 19 0.1 6.8
2020-Jan-20 03:48 330 15 gusting 17 0.1 6.8
2020-Jan-20 03:42 330 15 gusting 19 0.1 6.8
2020-Jan-20 03:36 350 13 gusting 19 -0.0 6.8
2020-Jan-20 03:30 330 15 gusting 19 0.4 6.9
2020-Jan-20 03:24 310 17 gusting 19 0.6 6.9
2020-Jan-20 03:18 340 19 gusting 23 0.6 6.9
2020-Jan-20 03:12 320 21 gusting 25 0.6 6.9
2020-Jan-20 03:06 310 15 gusting 19 0.9 6.9
2020-Jan-20 03:00 300 17 gusting 21 0.9 6.9 0.6
2020-Jan-20 02:54 330 19 gusting 21 0.8 6.9
2020-Jan-20 02:48 280 21 gusting 23 0.9 6.9
2020-Jan-20 02:42 300 21 gusting 25 0.9 6.9
2020-Jan-20 02:36 300 21 gusting 25 0.9 6.9
2020-Jan-20 02:30 290 21 gusting 25 1.0 6.9
2020-Jan-20 02:24 290 23 gusting 25 1.0 6.9
2020-Jan-20 02:18 300 23 gusting 25 1.1 6.9
2020-Jan-20 02:12 310 21 gusting 23 1.2 6.9
2020-Jan-20 02:06 310 23 gusting 27 1.2 6.9
2020-Jan-20 02:00 320 23 gusting 27 1.3 6.9 0.8
2020-Jan-20 01:54 290 23 gusting 25 1.4 6.9
2020-Jan-20 01:48 330 21 gusting 27 1.3 6.9
2020-Jan-20 01:42 350 21 gusting 25 1.4 6.9
2020-Jan-20 01:36 310 21 gusting 27 1.4 6.9
2020-Jan-20 01:30 300 23 gusting 29 1.4 6.9
2020-Jan-20 01:24 310 23 gusting 27 1.6 6.9
2020-Jan-20 01:18 300 23 gusting 27 1.6 6.9
2020-Jan-20 01:12 300 23 gusting 27 1.7 6.9
2020-Jan-20 01:06 320 21 gusting 25 1.6 6.9
2020-Jan-20 01:00 290 23 gusting 27 1.7 6.9 0.5
2020-Jan-20 00:54 280 21 gusting 25 1.8 6.9
2020-Jan-20 00:48 290 19 gusting 23 1.8 6.9
2020-Jan-20 00:42 310 21 gusting 25 1.9 6.9
2020-Jan-20 00:36 300 21 gusting 23 2.0 6.9
2020-Jan-20 00:30 300 21 gusting 23 2.0 6.9
2020-Jan-20 00:24 290 21 gusting 25 2.0 6.9
2020-Jan-20 00:18 300 21 gusting 25 2.0 6.9
2020-Jan-20 00:12 310 15 gusting 19 1.9 6.9
2020-Jan-20 00:06 310 15 gusting 21 2.0 6.9
2020-Jan-20 00:00 320 17 gusting 19 2.1 6.9 0.7
2020-Jan-19 23:54 290 17 gusting 21 2.1 6.9
2020-Jan-19 23:48 320 19 gusting 23 2.2 6.9
2020-Jan-19 23:42 310 19 gusting 25 2.3 6.9
2020-Jan-19 23:36 320 19 gusting 23 2.5 6.9
2020-Jan-19 23:30 300 19 gusting 23 2.4 6.8
2020-Jan-19 23:24 330 19 gusting 23 2.4 6.8
2020-Jan-19 23:18 330 19 gusting 21 2.6 6.8
2020-Jan-19 23:12 330 17 gusting 23 2.7 6.8
2020-Jan-19 23:06 330 17 gusting 19 2.9 6.8
2020-Jan-19 23:00 320 17 gusting 21 3.2 6.8 0.5
2020-Jan-19 22:54 310 17 gusting 21 3.3 6.8
2020-Jan-19 22:48 310 19 gusting 21 3.3 6.9
2020-Jan-19 22:42 300 21 gusting 23 3.4 6.9
2020-Jan-19 22:36 330 21 gusting 25 3.4 6.8
2020-Jan-19 22:30 290 21 gusting 25 3.3 6.8
2020-Jan-19 22:24 320 15 gusting 19 3.4 6.8
2020-Jan-19 22:18 300 15 gusting 17 3.5 6.8
2020-Jan-19 22:12 330 13 gusting 17 3.6 6.9
2020-Jan-19 22:06 310 15 gusting 19 3.8 6.8
2020-Jan-19 22:00 330 15 gusting 19 4.0 6.9 0.4
2020-Jan-19 21:54 310 17 gusting 21 4.1 6.9
2020-Jan-19 21:48 300 17 gusting 23 4.1 6.8
2020-Jan-19 21:42 330 19 gusting 21 4.0 6.9
2020-Jan-19 21:36 340 15 gusting 19 4.0 6.9
2020-Jan-19 21:30 340 17 gusting 19 4.3 6.9
2020-Jan-19 21:24 310 17 gusting 21 4.2 6.9
2020-Jan-19 21:18 330 19 gusting 23 4.4 6.9
2020-Jan-19 21:12 310 19 gusting 23 4.7 6.9
2020-Jan-19 21:06 330 17 gusting 21 4.9 6.9
2020-Jan-19 21:00 310 17 gusting 19 5.0 6.9 0.4
2020-Jan-19 20:54 340 21 gusting 23 5.3 6.9
2020-Jan-19 20:48 320 19 gusting 21 5.4 6.9
2020-Jan-19 20:42 320 15 gusting 19 5.5 6.9
2020-Jan-19 20:36 340 17 gusting 21 5.5 6.9
2020-Jan-19 20:30 310 17 gusting 21 5.6 6.9
2020-Jan-19 20:24 330 13 gusting 17 5.7 6.9
2020-Jan-19 20:18 320 15 gusting 19 5.9 7.0
2020-Jan-19 20:12 320 17 gusting 21 6.5 7.0
2020-Jan-19 20:06 320 17 gusting 19 6.7 7.0
2020-Jan-19 20:00 350 17 gusting 17 6.9 7.0 0.3
2020-Jan-19 19:54 320 15 gusting 15 7.1 7.0
2020-Jan-19 19:48 320 15 gusting 19 7.2 7.0
2020-Jan-19 19:42 340 15 gusting 17 7.2 7.0
2020-Jan-19 19:36 340 17 gusting 21 7.2 7.0
2020-Jan-19 19:30 340 17 gusting 21 7.4 7.0
2020-Jan-19 19:24 320 17 gusting 17 7.6 7.0
2020-Jan-19 19:18 320 15 gusting 17 7.3 7.0
2020-Jan-19 19:12 290 15 gusting 15 7.4 7.0
2020-Jan-19 19:06 300 15 gusting 15 7.5 7.0
2020-Jan-19 19:00 320 15 gusting 15 7.5 7.0 0.3
2020-Jan-19 18:54 310 15 gusting 15 7.6 7.0
2020-Jan-19 18:48 300 13 gusting 15 7.4 7.0
2020-Jan-19 18:42 300 13 gusting 15 7.3 7.0
2020-Jan-19 18:36 290 13 gusting 15 7.3 7.1
2020-Jan-19 18:30 300 13 gusting 15 7.3 7.0
2020-Jan-19 18:24 310 15 gusting 15 7.2 7.0
2020-Jan-19 18:18 310 15 gusting 17 7.1 7.0
2020-Jan-19 18:12 300 15 gusting 15 7.1 7.0
2020-Jan-19 18:06 300 15 gusting 17 7.1 7.0
2020-Jan-19 18:00 300 15 gusting 15 7.1 7.0 0.5
2020-Jan-19 17:54 300 15 gusting 15 7.1 7.0
2020-Jan-19 17:48 300 15 gusting 15 7.0 7.0
2020-Jan-19 17:42 300 17 gusting 19 7.0 7.0
2020-Jan-19 17:36 300 17 gusting 19 7.0 7.0
2020-Jan-19 17:30 300 15 gusting 17 6.9 7.0
2020-Jan-19 17:24 310 15 gusting 17 6.9 7.0
2020-Jan-19 17:18 300 15 gusting 17 7.0 7.0
2020-Jan-19 17:12 290 17 gusting 17 7.0 7.0
2020-Jan-19 17:00 300 17 gusting 19 7.6 7.1 0.4
2020-Jan-19 16:54 310 17 gusting 19 7.8 7.1
2020-Jan-19 16:48 320 17 gusting 21 7.3 7.1
2020-Jan-19 16:42 300 11 gusting 13 7.4 7.1
2020-Jan-19 16:36 290 13 gusting 15 7.4 7.1
2020-Jan-19 16:30 290 13 gusting 17 7.4 7.1
2020-Jan-19 16:24 300 15 gusting 17 7.1 7.1
2020-Jan-19 16:18 300 15 gusting 17 7.0 7.1
2020-Jan-19 16:12 290 13 gusting 15 7.0 7.1
2020-Jan-19 16:06 300 15 gusting 15 7.0 7.0
2020-Jan-19 16:00 300 11 gusting 15 6.9 7.0 0.3
2020-Jan-19 15:54 290 13 gusting 15 7.0 7.0
2020-Jan-19 15:48 280 13 gusting 15 7.0 7.0
2020-Jan-19 15:42 290 11 gusting 15 7.0 7.0
2020-Jan-19 15:36 280 9 gusting 11 7.1 7.0
2020-Jan-19 15:30 260 9 gusting 9 7.1 7.0
2020-Jan-19 15:24 290 7 gusting 9 7.0 7.0
2020-Jan-19 15:18 290 7 gusting 7 6.9 7.0
2020-Jan-19 15:12 280 7 gusting 7 6.9 7.0
2020-Jan-19 15:06 290 7 gusting 7 7.0 7.0
2020-Jan-19 15:00 280 5 gusting 7 7.0 7.0 0.3
2020-Jan-19 14:54 280 5 gusting 5 7.0 7.0
2020-Jan-19 14:48 290 5 gusting 7 7.0 7.0
2020-Jan-19 14:42 290 7 gusting 7 7.0 6.9
2020-Jan-19 14:36 290 5 gusting 7 7.1 6.9
2020-Jan-19 14:30 290 7 gusting 7 7.1 6.9
2020-Jan-19 14:24 280 7 gusting 9 6.8 6.9
2020-Jan-19 14:18 250 7 gusting 9 6.7 6.9
2020-Jan-19 14:12 280 7 gusting 9 6.8 6.9
2020-Jan-19 14:06 290 5 gusting 7 6.6 6.9
2020-Jan-19 14:00 290 5 gusting 9 6.6 0.4
2020-Jan-19 13:54 300 5 gusting 9 6.7 6.9
2020-Jan-19 13:48 330 5 gusting 9 6.7
2020-Jan-19 13:42 340 7 gusting 11 6.7
2020-Jan-19 13:36 310 7 gusting 11 6.7 6.9
2020-Jan-19 13:30 330 7 gusting 11 6.9 6.9
2020-Jan-19 13:24 310 9 gusting 11 6.9 6.9
2020-Jan-19 13:18 310 9 gusting 11 6.9 6.9
2020-Jan-19 13:12 290 9 gusting 11 6.8 6.9
2020-Jan-19 13:06 300 7 gusting 11 7.0
2020-Jan-19 13:00 320 7 gusting 11 7.1 6.9 0.4
2020-Jan-19 12:54 290 9 gusting 11 7.5 6.9
2020-Jan-19 12:48 270 15 gusting 17 6.9
2020-Jan-19 12:42 270 11 gusting 13 7.1 6.9
2020-Jan-19 12:36 230 13 gusting 15 7.1 6.9
2020-Jan-19 12:30 230 13 gusting 15 7.1 6.9
2020-Jan-19 12:24 200 13 gusting 15 7.2 6.9
2020-Jan-19 12:18 240 15 gusting 17 7.2 6.9
2020-Jan-19 12:12 210 13 gusting 15 7.2 6.9
2020-Jan-19 12:06 230 13 gusting 15 7.3 6.9
2020-Jan-19 12:00 230 13 gusting 15 7.3 6.9 0.4
2020-Jan-19 11:54 210 13 gusting 15 7.3 6.9
2020-Jan-19 11:48 240 13 gusting 15 7.3 6.9
2020-Jan-19 11:42 200 15 gusting 15 7.3 6.9
2020-Jan-19 11:36 210 15 gusting 17 7.4 6.9
2020-Jan-19 11:30 230 15 gusting 17 7.5 6.9
2020-Jan-19 11:24 220 15 gusting 17 7.5 6.9
2020-Jan-19 11:18 230 15 gusting 17 7.3 6.9
2020-Jan-19 11:12 250 15 gusting 17 7.3 6.9
2020-Jan-19 11:06 240 15 gusting 17 7.4 6.9
2020-Jan-19 11:00 250 13 gusting 15 7.4 6.9 0.4
2020-Jan-19 10:54 250 13 gusting 15 7.4 6.9
2020-Jan-19 10:48 220 15 gusting 17 7.4 6.9
2020-Jan-19 10:42 240 15 gusting 15 7.4 6.9
2020-Jan-19 10:36 210 13 gusting 15 7.2 6.9
2020-Jan-19 10:30 240 15 gusting 15 7.4 6.9
2020-Jan-19 10:24 230 15 gusting 19 7.3 6.9
2020-Jan-19 10:18 210 15 gusting 19 7.5 6.9
2020-Jan-19 10:12 200 17 gusting 19 7.3 6.9
2020-Jan-19 10:06 200 15 gusting 17 7.5 6.9
2020-Jan-19 10:00 270 15 gusting 19 7.5 6.9 0.5
2020-Jan-19 09:54 210 15 gusting 17 7.4 6.9
2020-Jan-19 09:48 210 15 gusting 17 7.4 6.9
2020-Jan-19 09:42 220 17 gusting 19 7.5 6.9
2020-Jan-19 09:36 240 17 gusting 19 7.3 6.9
2020-Jan-19 09:30 210 15 gusting 19 7.2 6.9
2020-Jan-19 09:24 210 15 gusting 17 7.3 6.9
2020-Jan-19 09:18 200 17 gusting 19 7.2 6.9
2020-Jan-19 09:12 250 17 gusting 19 7.1 6.9
2020-Jan-19 09:06 200 15 gusting 17 7.1 6.9
2020-Jan-19 09:00 220 15 gusting 19 7.3 6.9 0.5
2020-Jan-19 08:54 210 17 gusting 19 7.2 6.9
2020-Jan-19 08:48 220 17 gusting 21 7.2 6.9
2020-Jan-19 08:42 200 17 gusting 19 7.2 6.9
2020-Jan-19 08:36 190 17 gusting 19 7.3 6.9
2020-Jan-19 08:30 240 17 gusting 21 7.2 6.9
2020-Jan-19 08:24 220 17 gusting 19 7.1 6.9
2020-Jan-19 08:18 230 17 gusting 17 7.1 6.9
2020-Jan-19 08:12 210 17 gusting 19 7.0 6.9
2020-Jan-19 08:06 210 15 gusting 17 6.9 6.9
2020-Jan-19 08:00 200 15 gusting 19 7.0 6.9 0.7
2020-Jan-19 07:54 220 15 gusting 19 7.0 6.9
2020-Jan-19 07:48 230 17 gusting 19 7.0 6.9
2020-Jan-19 07:42 220 17 gusting 21 6.9 6.9
2020-Jan-19 07:36 220 17 gusting 19 7.0 6.9
2020-Jan-19 07:30 220 19 gusting 21 7.0 6.9
2020-Jan-19 07:24 230 17 gusting 19 6.9 6.9
2020-Jan-19 07:18 240 17 gusting 21 6.9 6.9
2020-Jan-19 07:12 210 17 gusting 19 6.8 6.9
2020-Jan-19 07:06 200 17 gusting 19 6.9 6.9
2020-Jan-19 07:00 200 19 gusting 23 6.7 6.9 0.9
2020-Jan-19 06:54 190 21 gusting 25 6.7 6.9
2020-Jan-19 06:48 190 19 gusting 23 6.9 6.9
2020-Jan-19 06:42 200 21 gusting 27 6.8 6.9
2020-Jan-19 06:36 240 19 gusting 23 6.8 6.9
2020-Jan-19 06:30 220 21 gusting 27 6.7 6.9
2020-Jan-19 06:24 200 19 gusting 25 6.4 6.9
2020-Jan-19 06:18 220 19 gusting 21 6.4 6.8
2020-Jan-19 06:12 200 17 gusting 21 6.3 6.9
2020-Jan-19 06:06 210 17 gusting 21 6.2 6.8
2020-Jan-19 06:00 230 17 gusting 23 6.1 6.8 0.5
2020-Jan-19 05:54 210 17 gusting 21 6.0 6.8
2020-Jan-19 05:48 200 17 gusting 19 5.9 6.8
2020-Jan-19 05:42 230 17 gusting 19 5.8 6.8
2020-Jan-19 05:36 220 15 gusting 19 5.7 6.8
2020-Jan-19 05:30 220 15 gusting 17 5.6 6.8
2020-Jan-19 05:24 220 17 gusting 19 5.5 6.8
2020-Jan-19 05:18 200 15 gusting 17 5.4 6.9
2020-Jan-19 05:12 220 15 gusting 19 5.3 6.9
2020-Jan-19 05:06 180 15 gusting 21 5.2 6.9
2020-Jan-19 05:00 230 15 gusting 17 5.2 6.9 0.5
2020-Jan-19 04:54 200 15 gusting 17 5.1 6.9
2020-Jan-19 04:48 240 13 gusting 17 5.0 6.9
2020-Jan-19 04:42 180 13 gusting 17 4.9 6.9
2020-Jan-19 04:36 200 15 gusting 17 4.9 6.9
2020-Jan-19 04:30 210 13 gusting 15 4.9 6.9
2020-Jan-19 04:24 200 15 gusting 17 4.9 6.9
2020-Jan-19 04:18 200 15 gusting 19 4.8 6.9
2020-Jan-19 04:12 170 15 gusting 17 4.8 6.9
2020-Jan-19 04:06 220 15 gusting 19 4.7 6.9
2020-Jan-19 04:00 210 15 gusting 17 4.7 6.9 0.6
2020-Jan-19 03:54 210 15 gusting 19 4.6 6.9
2020-Jan-19 03:48 190 15 gusting 17 4.5 6.9
2020-Jan-19 03:42 220 15 gusting 19 4.5 6.9
2020-Jan-19 03:36 210 15 gusting 15 4.5 6.9
2020-Jan-19 03:30 190 15 gusting 19 4.5 6.9
2020-Jan-19 03:24 220 15 gusting 17 4.5 6.9
2020-Jan-19 03:18 190 15 gusting 19 4.4 6.9
2020-Jan-19 03:12 230 15 gusting 17 4.3 6.9
2020-Jan-19 03:06 190 15 gusting 17 4.3 6.9
2020-Jan-19 03:00 230 13 gusting 15 4.2 6.9 0.5
2020-Jan-19 02:54 210 13 gusting 15 4.2 6.9
2020-Jan-19 02:48 200 13 gusting 15 4.2 6.9
2020-Jan-19 02:42 230 13 gusting 17 4.1 6.9
2020-Jan-19 02:36 250 13 gusting 15 4.1 6.9
2020-Jan-19 02:30 210 13 gusting 15 4.2 6.9
2020-Jan-19 02:24 230 13 gusting 15 4.2 6.8
2020-Jan-19 02:18 240 13 gusting 15 4.2 6.8
2020-Jan-19 02:12 250 15 gusting 19 4.1 6.8
2020-Jan-19 02:06 250 15 gusting 17 4.0 6.8
2020-Jan-19 02:00 220 15 gusting 17 4.0 6.8 0.6
2020-Jan-19 01:54 210 15 gusting 19 3.9 6.8
2020-Jan-19 01:48 210 17 gusting 19 3.9 6.8
2020-Jan-19 01:42 230 17 gusting 19 3.9 6.8
2020-Jan-19 01:36 230 17 gusting 21 3.8 6.8
2020-Jan-19 01:30 190 17 gusting 21 3.7 6.8
2020-Jan-19 01:24 190 19 gusting 21 3.6 6.8
2020-Jan-19 01:18 200 17 gusting 21 3.5 6.8
2020-Jan-19 01:12 230 19 gusting 21 3.4 6.8
2020-Jan-19 01:06 230 17 gusting 21 3.2 6.9
2020-Jan-19 01:00 210 17 gusting 21 3.2 6.9 0.4
2020-Jan-19 00:54 240 15 gusting 17 3.1 6.9
2020-Jan-19 00:48 200 15 gusting 17 3.0 6.9
2020-Jan-19 00:42 190 13 gusting 15 2.9 6.9
2020-Jan-19 00:36 220 11 gusting 13 2.9 6.9
2020-Jan-19 00:30 230 11 gusting 13 2.8 6.9
2020-Jan-19 00:24 220 11 gusting 13 2.8 6.9
2020-Jan-19 00:18 220 11 gusting 13 2.7 6.9
2020-Jan-19 00:12 260 11 gusting 13 2.8 6.9
2020-Jan-19 00:06 240 11 gusting 13 2.9 6.9
2020-Jan-19 00:00 240 11 gusting 13 2.8 6.9 0.3
2020-Jan-18 23:54 250 11 gusting 13 3.0 6.9
2020-Jan-18 23:48 240 11 gusting 11 3.0 6.9
2020-Jan-18 23:42 230 9 gusting 11 3.1 6.9
2020-Jan-18 23:36 200 9 gusting 11 3.2 6.9
2020-Jan-18 23:30 200 9 gusting 9 3.2 6.9
2020-Jan-18 23:24 200 9 gusting 9 3.2 6.9
2020-Jan-18 23:18 190 9 gusting 11 3.1 6.9
2020-Jan-18 23:12 190 9 gusting 11 3.2 6.9
2020-Jan-18 23:06 200 9 gusting 13 3.2 6.9
2020-Jan-18 23:00 190 9 gusting 11 3.2 6.9 0.4
2020-Jan-18 22:54 190 9 gusting 11 3.1 6.9
2020-Jan-18 22:48 180 9 gusting 9 3.0 6.9
2020-Jan-18 22:42 200 9 gusting 9 2.9 6.9
2020-Jan-18 22:36 200 7 gusting 9 3.0 6.9
2020-Jan-18 22:30 200 7 gusting 9 3.1 6.9
2020-Jan-18 22:24 190 7 gusting 9 3.1 6.9
2020-Jan-18 22:18 210 7 gusting 9 3.1 6.9
2020-Jan-18 22:12 210 7 gusting 9 3.1 6.9
2020-Jan-18 22:06 210 7 gusting 9 3.2 6.9
2020-Jan-18 22:00 230 9 gusting 9 3.3 6.9 0.4
2020-Jan-18 21:54 220 9 gusting 9 3.5 6.9
2020-Jan-18 21:48 220 9 gusting 11 3.6 6.9
2020-Jan-18 21:42 200 9 gusting 9 3.9 6.9
2020-Jan-18 21:36 230 9 gusting 11 4.0 6.9
2020-Jan-18 21:30 220 9 gusting 11 4.1 6.9
2020-Jan-18 21:24 180 9 gusting 9 4.3 6.9
2020-Jan-18 21:18 210 9 gusting 11 4.3 7.0
2020-Jan-18 21:12 190 9 gusting 11 4.4 7.0
2020-Jan-18 21:06 180 9 gusting 11 4.5 7.0
2020-Jan-18 21:00 180 9 gusting 11 4.5 7.0 0.5